• Join FlightAware (Why Join?)
  • Login
  • US Flag 
11:41PM EDT


 

Airport Tracker/Info


-or-


 

Live Flight TrackerFlight Track Log ✈ DAL110 ✈ 04-Jul-2013 ✈ SAEZ / EZE - KATL

Flight Track Log - Related Links

Times and Time Zones

All times are in EDT time to prevent confusion due to time zone crossing. See the DAL110 flight status page for this flight to view local times or setup timezone preferences in your user account.

Time Position Orientation Groundspeed Altitude Reporting Facility
EDT Latitude Longitude Course Direction KTS MPH feet Rate Location/Type
06:18PM -13.7016 -67.1666 338° Northwest  Level Estimated
06:19PM -13.6625 -67.1802 341° North  Level Estimated
06:20PM -13.6234 -67.1939 341° North  Level Estimated
06:21PM -13.5843 -67.2076 341° North  Level Estimated
06:22PM -13.5453 -67.2213 341° North  Level Estimated
06:23PM -13.5062 -67.2349 341° North  Level Estimated
06:24PM -13.4671 -67.2486 341° North  Level Estimated
06:25PM -13.4280 -67.2622 341° North  Level Estimated
06:26PM -13.3889 -67.2759 341° North  Level Estimated
06:27PM -13.3498 -67.2895 341° North  Level Estimated
06:28PM -13.3107 -67.3031 341° North  Level Estimated
06:29PM -13.2716 -67.3168 341° North  Level Estimated
06:30PM -13.2325 -67.3304 341° North  Level Estimated
06:31PM -13.1934 -67.3440 341° North  Level Estimated
06:32PM -13.1543 -67.3577 341° North  Level Estimated
06:33PM -13.1152 -67.3713 341° North  Level Estimated
06:34PM -13.0761 -67.3849 341° North  Level Estimated
06:35PM -13.0370 -67.3985 341° North  Level Estimated
06:36PM -12.9979 -67.4121 341° North  Level Estimated
06:37PM -12.9588 -67.4257 341° North  Level Estimated
06:38PM -12.9197 -67.4393 341° North  Level Estimated
06:39PM -12.8806 -67.4529 341° North  Level Estimated
06:40PM -12.8415 -67.4665 341° North  Level Estimated
06:41PM -12.8024 -67.4800 341° North  Level Estimated
06:42PM -12.7633 -67.4936 341° North  Level Estimated
06:43PM -12.7242 -67.5072 341° North  Level Estimated
06:44PM -12.6851 -67.5208 341° North  Level Estimated
06:45PM -12.6460 -67.5343 341° North  Level Estimated
06:46PM -12.6069 -67.5479 341° North  Level Estimated
06:47PM -12.5678 -67.5615 341° North  Level Estimated
06:48PM -12.5287 -67.5750 341° North  Level Estimated
06:49PM -12.4896 -67.5886 341° North  Level Estimated
06:50PM -12.4505 -67.6021 341° North  Level Estimated
06:51PM -12.4114 -67.6156 341° North  Level Estimated
06:52PM -12.3723 -67.6292 341° North  Level Estimated
06:53PM -12.3331 -67.6427 341° North  Level Estimated
06:54PM -12.2940 -67.6562 341° North  Level Estimated
06:55PM -12.2549 -67.6698 341° North  Level Estimated
06:56PM -12.2158 -67.6833 341° North  Level Estimated
06:57PM -12.1767 -67.6968 341° North  Level Estimated
06:58PM -12.1376 -67.7103 341° North  Level Estimated
06:59PM -12.0985 -67.7238 341° North  Level Estimated
07:00PM -12.0594 -67.7373 341° North  Level Estimated
07:01PM -12.0203 -67.7508 341° North  Level Estimated
07:02PM -11.9811 -67.7643 341° North  Level Estimated
07:03PM -11.9420 -67.7778 341° North  Level Estimated
07:04PM -11.9029 -67.7913 341° North  Level Estimated
07:05PM -11.8638 -67.8048 341° North  Level Estimated
07:06PM -11.8246 -67.8183 341° North  Level Estimated
07:07PM -11.7855 -67.8317 341° North  Level Estimated
07:08PM -11.7464 -67.8452 341° North  Level Estimated
07:09PM -11.7073 -67.8587 341° North  Level Estimated
07:10PM -11.6682 -67.8722 341° North  Level Estimated
07:11PM -11.6291 -67.8856 341° North  Level Estimated
07:12PM -11.5899 -67.8991 341° North  Level Estimated
07:13PM -11.5508 -67.9125 341° North  Level Estimated
07:14PM -11.5117 -67.9260 341° North  Level Estimated
07:15PM -11.4726 -67.9394 341° North  Level Estimated
07:16PM -11.4334 -67.9529 341° North  Level Estimated
07:17PM -11.3943 -67.9663 341° North  Level Estimated
07:18PM -11.3552 -67.9798 341° North  Level Estimated
07:19PM -11.3160 -67.9932 341° North  Level Estimated
07:20PM -11.2769 -68.0066 341° North  Level Estimated
07:21PM -11.2378 -68.0200 341° North  Level Estimated
07:22PM -11.1987 -68.0334 341° North  Level Estimated
07:23PM -11.1595 -68.0469 341° North  Level Estimated
07:24PM -11.1204 -68.0603 341° North  Level Estimated
07:25PM -11.0813 -68.0737 341° North  Level Estimated
07:26PM -11.0421 -68.0871 341° North  Level Estimated
07:27PM -11.0030 -68.1005 341° North  Level Estimated
07:28PM -10.9639 -68.1139 341° North  Level Estimated
07:29PM -10.9248 -68.1273 341° North  Level Estimated
07:30PM -10.8856 -68.1407 341° North  Level Estimated
07:31PM -10.8465 -68.1541 341° North  Level Estimated
07:32PM -10.8074 -68.1675 341° North  Level Estimated
07:33PM -10.7682 -68.1808 341° North  Level Estimated
07:34PM -10.7291 -68.1942 341° North  Level Estimated
07:35PM -10.6899 -68.2076 341° North  Level Estimated
07:36PM -10.6508 -68.2210 341° North  Level Estimated
07:37PM -10.6117 -68.2344 341° North  Level Estimated
07:38PM -10.5725 -68.2477 341° North  Level Estimated
07:39PM -10.5334 -68.2611 341° North  Level Estimated
07:40PM -10.4942 -68.2744 341° North  Level Estimated
07:41PM -10.4551 -68.2878 341° North  Level Estimated
07:42PM -10.4160 -68.3011 341° North  Level Estimated
07:43PM -10.3768 -68.3145 341° North  Level Estimated
07:44PM -10.3377 -68.3278 341° North  Level Estimated
07:45PM -10.2985 -68.3412 341° North  Level Estimated
07:46PM -10.2594 -68.3545 341° North  Level Estimated
07:47PM -10.2203 -68.3678 341° North  Level Estimated
07:48PM -10.1811 -68.3812 341° North  Level Estimated
07:49PM -10.1420 -68.3945 341° North  Level Estimated
07:50PM -10.1028 -68.4078 341° North  Level Estimated
07:51PM -10.0637 -68.4211 341° North  Level Estimated
07:52PM -10.0245 -68.4344 341° North  Level Estimated
07:53PM -9.9854 -68.4478 341° North  Level Estimated
07:54PM -9.9462 -68.4611 341° North  Level Estimated
07:55PM -9.9071 -68.4744 341° North  Level Estimated
07:56PM -9.8679 -68.4877 341° North  Level Estimated
07:57PM -9.8288 -68.5010 341° North  Level Estimated
07:58PM -9.7896 -68.5143 341° North  Level Estimated
07:59PM -9.7505 -68.5276 341° North  Level Estimated
08:00PM -9.7113 -68.5409 341° North  Level Estimated
08:01PM -9.6722 -68.5542 341° North  Level Estimated
08:02PM -9.6330 -68.5675 342° North  Level Estimated
08:03PM -9.5939 -68.5807 342° North  Level Estimated
08:04PM -9.5547 -68.5940 342° North  Level Estimated
08:05PM -9.5156 -68.6073 342° North  Level Estimated
08:06PM -9.4764 -68.6206 342° North  Level Estimated
08:07PM -9.4373 -68.6339 342° North  Level Estimated
08:08PM -9.3981 -68.6471 342° North  Level Estimated
08:09PM -9.3590 -68.6604 342° North  Level Estimated
08:10PM -9.3198 -68.6737 342° North  Level Estimated
08:11PM -9.2807 -68.6869 342° North  Level Estimated
08:12PM -9.2415 -68.7002 342° North  Level Estimated
08:13PM -9.2023 -68.7134 342° North  Level Estimated
08:14PM -9.1632 -68.7267 342° North  Level Estimated
08:15PM -9.1240 -68.7399 342° North  Level Estimated
08:16PM -9.0849 -68.7532 342° North  Level Estimated
08:17PM -9.0457 -68.7664 342° North  Level Estimated
08:18PM -9.0065 -68.7796 342° North  Level Estimated
08:19PM -8.9674 -68.7929 342° North  Level Estimated
08:20PM -8.9282 -68.8061 342° North  Level Estimated
08:21PM -8.8891 -68.8193 342° North  Level Estimated
08:22PM -8.8499 -68.8326 342° North  Level Estimated
08:23PM -8.8108 -68.8458 342° North  Level Estimated
08:24PM -8.7716 -68.8590 342° North  Level Estimated
08:25PM -8.7324 -68.8722 342° North  Level Estimated
08:26PM -8.6933 -68.8855 342° North  Level Estimated
08:27PM -8.6541 -68.8987 342° North  Level Estimated
08:28PM -8.6150 -68.9119 342° North  Level Estimated
08:29PM -8.5758 -68.9251 342° North  Level Estimated
08:30PM -8.5366 -68.9383 342° North  Level Estimated
08:31PM -8.4975 -68.9515 342° North  Level Estimated
08:32PM -8.4583 -68.9647 342° North  Level Estimated
08:33PM -8.4191 -68.9779 342° North  Level Estimated
08:34PM -8.3800 -68.9911 342° North  Level Estimated
08:35PM -8.3408 -69.0043 342° North  Level Estimated
08:36PM -8.3016 -69.0175 342° North  Level Estimated
08:37PM -8.2625 -69.0306 342° North  Level Estimated
08:38PM -8.2233 -69.0438 342° North  Level Estimated
08:39PM -8.1841 -69.0570 342° North  Level Estimated
08:40PM -8.1449 -69.0702 342° North  Level Estimated
08:41PM -8.1058 -69.0834 342° North  Level Estimated
08:42PM -8.0666 -69.0965 342° North  Level Estimated
08:43PM -8.0274 -69.1097 342° North  Level Estimated
08:44PM -7.9883 -69.1229 342° North  Level Estimated
08:45PM -7.9491 -69.1360 342° North  Level Estimated
08:46PM -7.9099 -69.1492 342° North  Level Estimated
08:47PM -7.8707 -69.1624 342° North  Level Estimated
08:48PM -7.8316 -69.1755 342° North  Level Estimated
08:49PM -7.7924 -69.1887 342° North  Level Estimated
08:50PM -7.7532 -69.2018 342° North  Level Estimated
08:51PM -7.7141 -69.2150 342° North  Level Estimated
08:52PM -7.6749 -69.2281 342° North  Level Estimated
08:53PM -7.6357 -69.2413 342° North  Level Estimated
08:54PM -7.5966 -69.2544 342° North  Level Estimated
08:55PM -7.5574 -69.2676 342° North  Level Estimated
08:56PM -7.5182 -69.2807 342° North  Level Estimated
08:57PM -7.4790 -69.2939 342° North  Level Estimated
08:58PM -7.4398 -69.3070 342° North  Level Estimated
08:59PM -7.4007 -69.3201 342° North  Level Estimated
09:00PM -7.3615 -69.3332 342° North  Level Estimated
09:01PM -7.3223 -69.3464 342° North  Level Estimated
09:02PM -7.2831 -69.3595 342° North  Level Estimated
09:03PM -7.2439 -69.3726 342° North  Level Estimated
09:04PM -7.2048 -69.3857 342° North  Level Estimated
09:05PM -7.1656 -69.3989 342° North  Level Estimated
09:06PM -7.1264 -69.4120 342° North  Level Estimated
09:07PM -7.0872 -69.4251 342° North  Level Estimated
09:08PM -7.0480 -69.4382 342° North  Level Estimated
09:09PM -7.0089 -69.4513 342° North  Level Estimated
09:10PM -6.9697 -69.4644 342° North  Level Estimated
09:11PM -6.9305 -69.4775 342° North  Level Estimated
09:12PM -6.8913 -69.4906 342° North  Level Estimated
09:13PM -6.8521 -69.5037 342° North  Level Estimated
09:14PM -6.8130 -69.5168 342° North  Level Estimated
09:15PM -6.7738 -69.5299 342° North  Level Estimated
09:16PM -6.7346 -69.5430 342° North  Level Estimated
09:17PM -6.6954 -69.5561 342° North  Level Estimated
09:18PM -6.6562 -69.5692 342° North  Level Estimated
09:19PM -6.6171 -69.5823 342° North  Level Estimated
09:20PM -6.5779 -69.5954 342° North  Level Estimated
09:21PM -6.5387 -69.6085 342° North  Level Estimated
09:22PM -6.4995 -69.6215 342° North  Level Estimated
09:23PM -6.4603 -69.6346 342° North  Level Estimated
09:24PM -6.4212 -69.6477 342° North  Level Estimated
09:25PM -6.3820 -69.6608 342° North  Level Estimated
09:26PM -6.3428 -69.6739 342° North  Level Estimated
09:27PM -6.3036 -69.6869 342° North  Level Estimated
09:28PM -6.2644 -69.7000 342° North  Level Estimated
09:29PM -6.2252 -69.7131 342° North  Level Estimated
09:30PM -6.1860 -69.7261 342° North  Level Estimated
09:31PM -6.1468 -69.7392 342° North  Level Estimated
09:32PM -6.1076 -69.7523 342° North  Level Estimated
09:33PM -6.0684 -69.7653 342° North  Level Estimated
09:34PM -6.0293 -69.7784 342° North  Level Estimated
09:35PM -5.9901 -69.7914 342° North  Level Estimated
09:36PM -5.9509 -69.8045 342° North  Level Estimated
09:37PM -5.9117 -69.8175 342° North  Level Estimated
09:38PM -5.8725 -69.8306 342° North  Level Estimated
09:39PM -5.8333 -69.8436 342° North  Level Estimated
09:40PM -5.7941 -69.8567 342° North  Level Estimated
09:41PM -5.7549 -69.8697 342° North  Level Estimated
09:42PM -5.7157 -69.8828 342° North  Level Estimated
09:43PM -5.6765 -69.8958 342° North  Level Estimated
09:44PM -5.6374 -69.9089 342° North  Level Estimated
09:45PM -5.5982 -69.9219 342° North  Level Estimated
09:46PM -5.5590 -69.9349 342° North  Level Estimated
09:47PM -5.5198 -69.9480 342° North  Level Estimated
09:48PM -5.4806 -69.9610 342° North  Level Estimated
09:49PM -5.4414 -69.9740 342° North  Level Estimated
09:50PM -5.4022 -69.9871 342° North  Level Estimated
09:51PM -5.3630 -70.0001 342° North  Level Estimated
09:52PM -5.3238 -70.0131 342° North  Level Estimated
09:53PM -5.2846 -70.0261 342° North  Level Estimated
09:54PM -5.2455 -70.0391 342° North  Level Estimated
09:55PM -5.2063 -70.0522 342° North  Level Estimated
09:56PM -5.1671 -70.0652 342° North  Level Estimated
09:57PM -5.1279 -70.0782 342° North  Level Estimated
09:58PM -5.0887 -70.0912 342° North  Level Estimated
09:59PM -5.0495 -70.1042 342° North  Level Estimated
10:00PM -5.0103 -70.1172 342° North  Level Estimated
10:01PM -4.9711 -70.1303 342° North  Level Estimated
10:02PM -4.9319 -70.1433 342° North  Level Estimated
10:03PM -4.8927 -70.1563 342° North  Level Estimated
10:04PM -4.8535 -70.1693 342° North  Level Estimated
10:05PM -4.8143 -70.1823 342° North  Level Estimated
10:06PM -4.7751 -70.1953 342° North  Level Estimated
10:07PM -4.7359 -70.2083 342° North  Level Estimated
10:08PM -4.6967 -70.2213 342° North  Level Estimated
10:09PM -4.6575 -70.2343 342° North  Level Estimated
10:10PM -4.6183 -70.2473 342° North  Level Estimated
10:11PM -4.5791 -70.2603 342° North  Level Estimated
10:12PM -4.5399 -70.2733 342° North  Level Estimated
10:13PM -4.5007 -70.2863 342° North  Level Estimated
10:14PM -4.4615 -70.2993 342° North  Level Estimated
10:15PM -4.4223 -70.3123 342° North  Level Estimated
10:16PM -4.3831 -70.3253 342° North  Level Estimated
10:17PM -4.3439 -70.3382 342° North  Level Estimated
10:18PM -4.3047 -70.3512 342° North  Level Estimated
10:19PM -4.2655 -70.3642 342° North  Level Estimated
10:20PM -4.2263 -70.3772 342° North  Level Estimated
10:21PM -4.1871 -70.3902 342° North  Level Estimated
10:22PM -4.1479 -70.4032 342° North  Level Estimated
10:23PM -4.1087 -70.4162 342° North  Level Estimated
10:24PM -4.0695 -70.4291 342° North  Level Estimated
10:25PM -4.0303 -70.4421 342° North  Level Estimated
10:26PM -3.9911 -70.4551 342° North  Level Estimated
10:27PM -3.9519 -70.4681 342° North  Level Estimated
10:28PM -3.9127 -70.4810 342° North  Level Estimated
10:29PM -3.8735 -70.4940 342° North  Level Estimated
10:30PM -3.8343 -70.5070 342° North  Level Estimated
10:31PM -3.7951 -70.5200 342° North  Level Estimated
10:32PM -3.7559 -70.5329 342° North  Level Estimated
10:33PM -3.7167 -70.5459 342° North  Level Estimated
10:34PM -3.6775 -70.5589 342° North  Level Estimated
10:35PM -3.6383 -70.5718 342° North  Level Estimated
10:36PM -3.5991 -70.5848 342° North  Level Estimated
10:37PM -3.5599 -70.5977 342° North  Level Estimated
10:38PM -3.5207 -70.6107 342° North  Level Estimated
10:39PM -3.4815 -70.6237 342° North  Level Estimated
10:40PM -3.4423 -70.6366 342° North  Level Estimated
10:41PM -3.4030 -70.6496 342° North  Level Estimated
10:42PM -3.3638 -70.6626 342° North  Level Estimated
10:43PM -3.3246 -70.6755 342° North  Level Estimated
10:44PM -3.2854 -70.6885 342° North  Level Estimated
10:45PM -3.2462 -70.7014 342° North  Level Estimated
10:46PM -3.2070 -70.7144 342° North  Level Estimated
10:47PM -3.1678 -70.7273 342° North  Level Estimated
10:48PM -3.1286 -70.7403 342° North  Level Estimated
10:49PM -3.0894 -70.7532 342° North  Level Estimated
10:50PM -3.0502 -70.7662 342° North  Level Estimated
10:51PM -3.0110 -70.7791 342° North  Level Estimated
10:52PM -2.9717 -70.7921 342° North  Level Estimated
10:53PM -2.9325 -70.8050 342° North  Level Estimated
10:54PM -2.8933 -70.8180 342° North  Level Estimated
10:55PM -2.8541 -70.8309 342° North  Level Estimated
10:56PM -2.8149 -70.8439 342° North  Level Estimated
10:57PM -2.7757 -70.8568 342° North  Level Estimated
10:58PM -2.7365 -70.8698 342° North  Level Estimated
10:59PM -2.6973 -70.8827 342° North  Level Estimated
11:00PM -2.6581 -70.8956 342° North  Level Estimated
11:01PM -2.6188 -70.9086 342° North  Level Estimated
11:02PM -2.5796 -70.9215 342° North  Level Estimated
11:03PM -2.5404 -70.9344 342° North  Level Estimated
11:04PM -2.5012 -70.9474 342° North  Level Estimated
11:05PM -2.4620 -70.9603 342° North  Level Estimated
11:06PM -2.4228 -70.9733 342° North  Level Estimated
11:07PM -2.3836 -70.9862 342° North  Level Estimated
11:08PM -2.3444 -70.9992 342° North  Level Estimated
11:09PM -2.3052 -71.0121 342° North  Level Estimated
11:10PM -2.2660 -71.0250 342° North  Level Estimated
11:11PM -2.2267 -71.0379 342° North  Level Estimated
11:12PM -2.1875 -71.0509 342° North  Level Estimated
11:13PM -2.1483 -71.0638 342° North  Level Estimated
11:14PM -2.1091 -71.0767 342° North  Level Estimated
11:15PM -2.0699 -71.0897 342° North  Level Estimated
11:16PM -2.0307 -71.1026 342° North  Level Estimated
11:17PM -1.9915 -71.1155 342° North  Level Estimated
11:18PM -1.9523 -71.1284 342° North  Level Estimated
11:19PM -1.9131 -71.1414 342° North  Level Estimated
11:20PM -1.8739 -71.1543 342° North  Level Estimated
11:21PM -1.8347 -71.1672 342° North  Level Estimated
11:22PM -1.7954 -71.1802 342° North  Level Estimated
11:23PM -1.7562 -71.1931 342° North  Level Estimated
11:24PM -1.7170 -71.2060 342° North  Level Estimated
11:25PM -1.6778 -71.2189 342° North  Level Estimated
11:26PM -1.6386 -71.2319 342° North  Level Estimated
11:27PM -1.5994 -71.2448 342° North  Level Estimated
11:28PM -1.5602 -71.2577 342° North  Level Estimated
11:29PM -1.5210 -71.2706 342° North  Level Estimated
11:30PM -1.4818 -71.2835 342° North  Level Estimated
11:31PM -1.4425 -71.2965 342° North  Level Estimated
11:32PM -1.4033 -71.3094 342° North  Level Estimated
11:33PM -1.3641 -71.3223 342° North  Level Estimated
11:34PM -1.3249 -71.3352 342° North  Level Estimated
11:35PM -1.2857 -71.3482 342° North  Level Estimated
11:36PM -1.2465 -71.3611 342° North  Level Estimated
11:37PM -1.2073 -71.3740 342° North  Level Estimated
11:38PM -1.1681 -71.3869 342° North  Level Estimated
11:39PM -1.1289 -71.3998 342° North  Level Estimated
11:40PM -1.0897 -71.4128 342° North  Level Estimated
11:41PM -1.0504 -71.4257 342° North  Level Estimated
11:42PM -1.0112 -71.4386 342° North  Level Estimated
11:43PM -0.9720 -71.4515 342° North  Level Estimated
11:44PM -0.9328 -71.4644 342° North  Level Estimated
11:45PM -0.8936 -71.4773 342° North  Level Estimated
11:46PM -0.8544 -71.4903 342° North  Level Estimated
11:47PM -0.8152 -71.5032 342° North  Level Estimated
11:48PM -0.7760 -71.5161 342° North  Level Estimated
11:49PM -0.7368 -71.5290 342° North  Level Estimated
11:50PM -0.6976 -71.5419 342° North  Level Estimated
11:51PM -0.6583 -71.5549 342° North  Level Estimated
11:52PM -0.6191 -71.5678 342° North  Level Estimated
11:53PM -0.5799 -71.5807 342° North  Level Estimated
11:54PM -0.5407 -71.5936 342° North  Level Estimated
11:55PM -0.5015 -71.6065 342° North  Level Estimated
11:56PM -0.4623 -71.6194 342° North  Level Estimated
11:57PM -0.4231 -71.6323 342° North  Level Estimated
11:58PM -0.3839 -71.6452 342° North  Level Estimated
11:59PM -0.3447 -71.6581 342° North  Level Estimated
12:00AM -0.3055 -71.6711 342° North  Level Estimated
12:01AM -0.2663 -71.6840 342° North  Level Estimated
12:02AM -0.2270 -71.6969 342° North  Level Estimated
12:03AM -0.1878 -71.7098 342° North  Level Estimated
12:04AM -0.1486 -71.7227 342° North  Level Estimated
12:05AM -0.1094 -71.7356 342° North  Level Estimated
12:06AM -0.0702 -71.7485 342° North  Level Estimated
12:07AM -0.0310 -71.7614 342° North  Level Estimated
12:08AM 0.0082 -71.7743 342° North  Level Estimated
12:09AM 0.0474 -71.7872 342° North  Level Estimated
12:10AM 0.0866 -71.8002 342° North  Level Estimated
12:11AM 0.1259 -71.8131 342° North  Level Estimated
12:12AM 0.1651 -71.8260 342° North  Level Estimated
12:13AM 0.2043 -71.8389 342° North  Level Estimated
12:14AM 0.2435 -71.8518 342° North  Level Estimated
12:15AM 0.2827 -71.8647 342° North  Level Estimated
12:16AM 0.3219 -71.8776 342° North  Level Estimated
12:17AM 0.3611 -71.8905 342° North  Level Estimated
12:18AM 0.4003 -71.9034 342° North  Level Estimated
12:19AM 0.4395 -71.9164 342° North  Level Estimated
12:20AM 0.4787 -71.9293 342° North  Level Estimated
12:21AM 0.5179 -71.9422 342° North  Level Estimated
12:22AM 0.5572 -71.9551 342° North  Level Estimated
12:23AM 0.5964 -71.9680 342° North  Level Estimated
12:24AM 0.6356 -71.9809 342° North  Level Estimated
12:25AM 0.6748 -71.9938 342° North  Level Estimated
12:26AM 0.7140 -72.0067 342° North  Level Estimated
12:27AM 0.7532 -72.0197 342° North  Level Estimated
12:28AM 0.7924 -72.0326 342° North  Level Estimated
12:29AM 0.8316 -72.0455 342° North  Level Estimated
12:30AM 0.8708 -72.0584 342° North  Level Estimated
12:31AM 0.9100 -72.0713 342° North  Level Estimated
12:32AM 0.9493 -72.0843 342° North  Level Estimated
12:33AM 0.9885 -72.0972 342° North  Level Estimated
12:34AM 1.0277 -72.1101 342° North  Level Estimated
12:35AM 1.0669 -72.1230 342° North  Level Estimated
12:36AM 1.1061 -72.1359 342° North  Level Estimated
12:37AM 1.1453 -72.1489 342° North  Level Estimated
12:38AM 1.1845 -72.1618 342° North  Level Estimated
12:39AM 1.2237 -72.1747 342° North  Level Estimated
12:40AM 1.2629 -72.1876 342° North  Level Estimated
12:41AM 1.3022 -72.2005 342° North  Level Estimated
12:42AM 1.3414 -72.2135 342° North  Level Estimated
12:43AM 1.3806 -72.2264 342° North  Level Estimated
12:44AM 1.4198 -72.2393 342° North  Level Estimated
12:45AM 1.4590 -72.2522 342° North  Level Estimated
12:46AM 1.4982 -72.2651 342° North  Level Estimated
12:47AM 1.5374 -72.2781 342° North  Level Estimated
12:48AM 1.5766 -72.2910 342° North  Level Estimated
12:49AM 1.6158 -72.3039 342° North  Level Estimated
12:50AM 1.6550 -72.3168 342° North  Level Estimated
12:51AM 1.6942 -72.3297 342° North  Level Estimated
12:52AM 1.7335 -72.3427 342° North  Level Estimated
12:53AM 1.7727 -72.3556 342° North  Level Estimated
12:54AM 1.8119 -72.3685 342° North  Level Estimated
12:55AM 1.8511 -72.3814 342° North  Level Estimated
12:56AM 1.8903 -72.3944 342° North  Level Estimated
12:57AM 1.9295 -72.4073 342° North  Level Estimated
12:58AM 1.9687 -72.4202 342° North  Level Estimated
12:59AM 2.0079 -72.4332 342° North  Level Estimated
01:00AM 2.0471 -72.4461 342° North  Level Estimated
01:01AM 2.0863 -72.4590 342° North  Level Estimated
01:02AM 2.1256 -72.4720 342° North  Level Estimated
01:03AM 2.1648 -72.4849 342° North  Level Estimated
01:04AM 2.2040 -72.4978 342° North  Level Estimated
01:05AM 2.2432 -72.5107 342° North  Level Estimated
01:06AM 2.2824 -72.5237 342° North  Level Estimated
01:07AM 2.3216 -72.5366 342° North  Level Estimated
01:08AM 2.3608 -72.5495 342° North  Level Estimated
01:09AM 2.4000 -72.5625 342° North  Level Estimated
01:10AM 2.4392 -72.5754 342° North  Level Estimated
01:11AM 2.4785 -72.5884 342° North  Level Estimated
01:12AM 2.5177 -72.6013 342° North  Level Estimated
01:13AM 2.5569 -72.6142 342° North  Level Estimated
01:14AM 2.5961 -72.6272 342° North  Level Estimated
01:15AM 2.6353 -72.6401 342° North  Level Estimated
01:16AM 2.6745 -72.6531 342° North  Level Estimated
01:17AM 2.7137 -72.6660 342° North  Level Estimated
01:18AM 2.7529 -72.6789 342° North  Level Estimated
01:19AM 2.7921 -72.6919 342° North  Level Estimated
01:20AM 2.8313 -72.7048 342° North  Level Estimated
01:21AM 2.8705 -72.7178 342° North  Level Estimated
01:22AM 2.9098 -72.7307 342° North  Level Estimated
01:23AM 2.9490 -72.7437 342° North  Level Estimated
01:24AM 2.9882 -72.7566 342° North  Level Estimated
01:25AM 3.0274 -72.7696 342° North  Level Estimated
01:26AM 3.0666 -72.7825 342° North  Level Estimated
01:27AM 3.1058 -72.7955 342° North  Level Estimated
01:28AM 3.1450 -72.8084 342° North  Level Estimated
01:29AM 3.1842 -72.8214 342° North  Level Estimated
01:30AM 3.2234 -72.8343 342° North  Level Estimated
01:31AM 3.2627 -72.8473 342° North  Level Estimated
01:32AM 3.3019 -72.8602 342° North  Level Estimated
01:33AM 3.3411 -72.8732 342° North  Level Estimated
01:34AM 3.3803 -72.8861 342° North  Level Estimated
01:35AM 3.4195 -72.8991 342° North  Level Estimated
01:36AM 3.4587 -72.9121 342° North  Level Estimated
01:37AM 3.4979 -72.9250 342° North  Level Estimated
01:38AM 3.5371 -72.9380 342° North  Level Estimated
01:39AM 3.5763 -72.9510 342° North  Level Estimated
01:40AM 3.6155 -72.9639 342° North  Level Estimated
01:41AM 3.6547 -72.9769 342° North  Level Estimated
01:42AM 3.6939 -72.9899 342° North  Level Estimated
01:43AM 3.7331 -73.0028 342° North  Level Estimated
01:44AM 3.7723 -73.0158 342° North  Level Estimated
01:45AM 3.8115 -73.0288 342° North  Level Estimated
01:46AM 3.8507 -73.0417 342° North  Level Estimated
01:47AM 3.8899 -73.0547 342° North  Level Estimated
01:48AM 3.9291 -73.0677 342° North  Level Estimated
01:49AM 3.9683 -73.0806 342° North  Level Estimated
01:50AM 4.0075 -73.0936 342° North  Level Estimated
01:51AM 4.0467 -73.1066 342° North  Level Estimated
01:52AM 4.0859 -73.1196 342° North  Level Estimated
01:53AM 4.1251 -73.1326 342° North  Level Estimated
01:54AM 4.1643 -73.1455 342° North  Level Estimated
01:55AM 4.2035 -73.1585 342° North  Level Estimated
01:56AM 4.2427 -73.1715 342° North  Level Estimated
01:57AM 4.2819 -73.1845 342° North  Level Estimated
01:58AM 4.3211 -73.1975 342° North  Level Estimated
01:59AM 4.3603 -73.2105 342° North  Level Estimated
02:00AM 4.3995 -73.2235 342° North  Level Estimated
02:01AM 4.4387 -73.2365 342° North  Level Estimated
02:02AM 4.4779 -73.2494 342° North  Level Estimated
02:03AM 4.5171 -73.2624 342° North  Level Estimated
02:04AM 4.5563 -73.2754 342° North  Level Estimated
02:05AM 4.5955 -73.2884 342° North  Level Estimated
02:06AM 4.6347 -73.3014 342° North  Level Estimated
02:07AM 4.6739 -73.3144 342° North  Level Estimated
02:08AM 4.7131 -73.3274 342° North  Level Estimated
02:09AM 4.7523 -73.3404 342° North  Level Estimated
02:10AM 4.7915 -73.3534 342° North  Level Estimated
02:11AM 4.8307 -73.3664 342° North  Level Estimated
02:12AM 4.8699 -73.3794 342° North  Level Estimated
02:13AM 4.9091 -73.3924 342° North  Level Estimated
02:14AM 4.9483 -73.4054 342° North  Level Estimated
02:15AM 4.9875 -73.4185 342° North  Level Estimated
02:16AM 5.0267 -73.4315 342° North  Level Estimated
02:17AM 5.0659 -73.4445 342° North  Level Estimated
02:18AM 5.1051 -73.4575 342° North  Level Estimated
02:19AM 5.1443 -73.4705 342° North  Level Estimated
02:20AM 5.1835 -73.4835 342° North  Level Estimated
02:21AM 5.2227 -73.4966 342° North  Level Estimated
02:22AM 5.2619 -73.5096 342° North  Level Estimated
02:23AM 5.3011 -73.5226 342° North  Level Estimated
02:24AM 5.3403 -73.5356 342° North  Level Estimated
02:25AM 5.3794 -73.5487 342° North  Level Estimated
02:26AM 5.4186 -73.5617 342° North  Level Estimated
02:27AM 5.4578 -73.5747 342° North  Level Estimated
02:28AM 5.4970 -73.5878 342° North  Level Estimated
02:29AM 5.5362 -73.6008 342° North  Level Estimated
02:30AM 5.5754 -73.6138 342° North  Level Estimated
02:31AM 5.6146 -73.6269 342° North  Level Estimated
02:32AM 5.6538 -73.6399 342° North  Level Estimated
02:33AM 5.6930 -73.6529 342° North  Level Estimated
02:34AM 5.7322 -73.6660 342° North  Level Estimated
02:35AM 5.7713 -73.6790 342° North  Level Estimated
02:36AM 5.8105 -73.6921 342° North  Level Estimated
02:37AM 5.8497 -73.7051 342° North  Level Estimated
02:38AM 5.8889 -73.7182 342° North  Level Estimated
02:39AM 5.9281 -73.7312 342° North  Level Estimated
02:40AM 5.9673 -73.7443 342° North  Level Estimated
02:41AM 6.0065 -73.7573 342° North  Level Estimated
02:42AM 6.0457 -73.7704 342° North  Level Estimated
02:43AM 6.0849 -73.7834 342° North  Level Estimated
02:44AM 6.1241 -73.7965 342° North  Level Estimated
02:45AM 6.1632 -73.8096 342° North  Level Estimated
02:46AM 6.2024 -73.8226 342° North  Level Estimated
02:47AM 6.2416 -73.8357 342° North  Level Estimated
02:48AM 6.2808 -73.8488 342° North  Level Estimated
02:49AM 6.3200 -73.8618 342° North  Level Estimated
02:50AM 6.3592 -73.8749 342° North  Level Estimated
02:51AM 6.3984 -73.8880 342° North  Level Estimated
02:52AM 6.4376 -73.9011 342° North  Level Estimated
02:53AM 6.4768 -73.9141 342° North  Level Estimated
02:54AM 6.5160 -73.9272 342° North  Level Estimated
02:55AM 6.5551 -73.9403 342° North  Level Estimated
02:56AM 6.5943 -73.9534 342° North  Level Estimated
02:57AM 6.6335 -73.9665 342° North  Level Estimated
02:58AM 6.6727 -73.9796 342° North  Level Estimated
02:59AM 6.7119 -73.9927 342° North  Level Estimated
03:00AM 6.7510 -74.0057 342° North  Level Estimated
03:01AM 6.7902 -74.0188 342° North  Level Estimated
03:02AM 6.8294 -74.0319 342° North  Level Estimated
03:03AM 6.8686 -74.0450 342° North  Level Estimated
03:04AM 6.9078 -74.0581 342° North  Level Estimated
03:05AM 6.9469 -74.0712 342° North  Level Estimated
03:06AM 6.9861 -74.0844 342° North  Level Estimated
03:07AM 7.0253 -74.0975 342° North  Level Estimated
03:08AM 7.0645 -74.1106 342° North  Level Estimated
03:09AM 7.1037 -74.1237 342° North  Level Estimated
03:10AM 7.1428 -74.1368 342° North  Level Estimated
03:11AM 7.1820 -74.1499 342° North  Level Estimated
03:12AM 7.2212 -74.1630 342° North  Level Estimated
03:13AM 7.2604 -74.1762 342° North  Level Estimated
03:14AM 7.2996 -74.1893 342° North  Level Estimated
03:15AM 7.3387 -74.2024 342° North  Level Estimated
03:16AM 7.3779 -74.2155 342° North  Level Estimated
03:17AM 7.4171 -74.2287 342° North  Level Estimated
03:18AM 7.4563 -74.2418 342° North  Level Estimated
03:19AM 7.4955 -74.2549 342° North  Level Estimated
03:20AM 7.5346 -74.2681 342° North  Level Estimated
03:21AM 7.5738 -74.2812 342° North  Level Estimated
03:22AM 7.6130 -74.2944 342° North  Level Estimated
03:23AM 7.6522 -74.3075 342° North  Level Estimated
03:24AM 7.6913 -74.3207 342° North  Level Estimated
03:25AM 7.7305 -74.3338 342° North  Level Estimated
03:26AM 7.7697 -74.3470 342° North  Level Estimated
03:27AM 7.8088 -74.3601 342° North  Level Estimated
03:28AM 7.8480 -74.3733 342° North  Level Estimated
03:29AM 7.8872 -74.3864 342° North  Level Estimated
03:30AM 7.9263 -74.3996 342° North  Level Estimated
03:31AM 7.9655 -74.4128 342° North  Level Estimated
03:32AM 8.0047 -74.4259 342° North  Level Estimated
03:33AM 8.0438 -74.4391 342° North  Level Estimated
03:34AM 8.0830 -74.4523 342° North  Level Estimated
03:35AM 8.1222 -74.4654 342° North  Level Estimated
03:36AM 8.1614 -74.4786 342° North  Level Estimated
03:37AM 8.2005 -74.4918 342° North  Level Estimated
03:38AM 8.2397 -74.5050 342° North  Level Estimated
03:39AM 8.2789 -74.5182 342° North  Level Estimated
03:40AM 8.3180 -74.5314 342° North  Level Estimated
03:41AM 8.3572 -74.5445 342° North  Level Estimated
03:42AM 8.3964 -74.5577 342° North  Level Estimated
03:43AM 8.4355 -74.5709 342° North  Level Estimated
03:44AM 8.4747 -74.5841 342° North  Level Estimated
03:45AM 8.5139 -74.5973 342° North  Level Estimated
03:46AM 8.5531 -74.6105 342° North  Level Estimated
03:47AM 8.5922 -74.6237 342° North  Level Estimated
03:48AM 8.6314 -74.6370 342° North  Level Estimated
03:49AM 8.6705 -74.6502 342° North  Level Estimated
03:50AM 8.7097 -74.6634 342° North  Level Estimated
03:51AM 8.7488 -74.6766 342° North  Level Estimated
03:52AM 8.7880 -74.6898 342° North  Level Estimated
03:53AM 8.8272 -74.7030 342° North  Level Estimated
03:54AM 8.8663 -74.7163 342° North  Level Estimated
03:55AM 8.9055 -74.7295 342° North  Level Estimated
03:56AM 8.9446 -74.7427 342° North  Level Estimated
03:57AM 8.9838 -74.7560 342° North  Level Estimated
03:58AM 9.0230 -74.7692 342° North  Level Estimated
03:59AM 9.0621 -74.7824 342° North  Level Estimated
04:00AM 9.1013 -74.7957 342° North  Level Estimated
04:01AM 9.1404 -74.8089 342° North  Level Estimated
04:02AM 9.1796 -74.8222 342° North  Level Estimated
04:03AM 9.2188 -74.8354 342° North  Level Estimated
04:04AM 9.2579 -74.8487 342° North  Level Estimated
04:05AM 9.2971 -74.8620 342° North  Level Estimated
04:06AM 9.3363 -74.8752 342° North  Level Estimated
04:07AM 9.3754 -74.8885 342° North  Level Estimated
04:08AM 9.4145 -74.9017 342° North  Level Estimated
04:09AM 9.4537 -74.9150 342° North  Level Estimated
04:10AM 9.4929 -74.9283 342° North  Level Estimated
04:11AM 9.5320 -74.9416 342° North  Level Estimated
04:12AM 9.5711 -74.9548 342° North  Level Estimated
04:13AM 9.6103 -74.9681 342° North  Level Estimated
04:14AM 9.6495 -74.9814 342° North  Level Estimated
04:15AM 9.6886 -74.9947 342° North  Level Estimated
04:16AM 9.7277 -75.0080 341° North  Level Estimated
04:17AM 9.7669 -75.0213 341° North  Level Estimated
04:18AM 9.8061 -75.0346 341° North  Level Estimated
04:19AM 9.8452 -75.0479 341° North  Level Estimated
04:20AM 9.8843 -75.0612 341° North  Level Estimated
04:21AM 9.9235 -75.0745 341° North  Level Estimated
04:22AM 9.9627 -75.0878 341° North  Level Estimated
04:23AM 10.0018 -75.1011 341° North  Level Estimated
04:24AM 10.0409 -75.1144 341° North  Level Estimated
04:25AM 10.0801 -75.1277 341° North  Level Estimated
04:26AM 10.1193 -75.1411 341° North  Level Estimated
04:27AM 10.1584 -75.1544 341° North  Level Estimated
04:28AM 10.1975 -75.1677 341° North  Level Estimated
04:29AM 10.2367 -75.1811 341° North  Level Estimated
04:30AM 10.2758 -75.1944 341° North  Level Estimated
04:31AM 10.3149 -75.2077 341° North  Level Estimated
04:32AM 10.3541 -75.2211 341° North  Level Estimated
04:33AM 10.3932 -75.2344 341° North  Level Estimated
04:34AM 10.4324 -75.2478 341° North  Level Estimated
04:35AM 10.4715 -75.2611 341° North  Level Estimated
04:36AM 10.5106 -75.2745 341° North  Level Estimated
04:37AM 10.5498 -75.2878 341° North  Level Estimated
04:38AM 10.5889 -75.3012 341° North  Level Estimated
04:39AM 10.6281 -75.3146 341° North  Level Estimated
04:40AM 10.6672 -75.3279 341° North  Level Estimated
04:41AM 10.7064 -75.3413 341° North  Level Estimated
04:42AM 10.7455 -75.3547 341° North  Level Estimated
04:43AM 10.7846 -75.3681 341° North  Level Estimated
04:44AM 10.8238 -75.3815 341° North  Level Estimated
04:45AM 10.8629 -75.3949 341° North  Level Estimated
04:46AM 10.9020 -75.4082 341° North  Level Estimated
04:47AM 10.9412 -75.4216 341° North  Level Estimated
04:48AM 10.9803 -75.4350 341° North  Level Estimated
04:49AM 11.0194 -75.4484 341° North  Level Estimated
04:50AM 11.0585 -75.4618 341° North  Level Estimated
04:51AM 11.0977 -75.4752 341° North  Level Estimated
04:52AM 11.1368 -75.4886 341° North  Level Estimated
04:53AM 11.1759 -75.5021 341° North  Level Estimated
04:54AM 11.2151 -75.5155 341° North  Level Estimated
04:55AM 11.2542 -75.5289 341° North  Level Estimated
04:56AM 11.2933 -75.5423 341° North  Level Estimated
04:57AM 11.3325 -75.5558 341° North  Level Estimated
04:58AM 11.3716 -75.5692 341° North  Level Estimated
04:59AM 11.4107 -75.5826 341° North  Level Estimated
05:00AM 11.4499 -75.5961 341° North  Level Estimated
05:01AM 11.4890 -75.6095 341° North  Level Estimated
05:02AM 11.5281 -75.6230 341° North  Level Estimated
05:03AM 11.5672 -75.6364 341° North  Level Estimated
05:04AM 11.6063 -75.6499 341° North  Level Estimated
05:05AM 11.6454 -75.6633 341° North  Level Estimated
05:06AM 11.6846 -75.6768 341° North  Level Estimated
05:07AM 11.7237 -75.6903 341° North  Level Estimated
05:08AM 11.7628 -75.7037 341° North  Level Estimated
05:09AM 11.8019 -75.7172 341° North  Level Estimated
05:10AM 11.8411 -75.7307 341° North  Level Estimated
05:11AM 11.8802 -75.7442 341° North  Level Estimated
05:12AM 11.9193 -75.7577 341° North  Level Estimated
05:13AM 11.9584 -75.7712 341° North  Level Estimated
05:14AM 11.9975 -75.7847 341° North  Level Estimated
05:15AM 12.0366 -75.7981 341° North  Level Estimated
05:16AM 12.0758 -75.8117 341° North  Level Estimated
05:17AM 12.1149 -75.8252 341° North  Level Estimated
05:18AM 12.1540 -75.8387 341° North  Level Estimated
05:19AM 12.1931 -75.8522 341° North  Level Estimated
05:20AM 12.2322 -75.8657 341° North  Level Estimated
05:21AM 12.2713 -75.8792 341° North  Level Estimated
05:22AM 12.3104 -75.8928 341° North  Level Estimated
05:23AM 12.3495 -75.9063 341° North  Level Estimated
05:24AM 12.3886 -75.9198 341° North  Level Estimated
05:25AM 12.4278 -75.9333 341° North  Level Estimated
05:26AM 12.4669 -75.9469 341° North  Level Estimated
05:27AM 12.5060 -75.9604 341° North  Level Estimated
05:28AM 12.5451 -75.9740 341° North  Level Estimated
05:29AM 12.5842 -75.9875 341° North  Level Estimated
05:30AM 12.6233 -76.0011 341° North  Level Estimated
05:31AM 12.6624 -76.0147 341° North  Level Estimated
05:32AM 12.7015 -76.0282 341° North  Level Estimated
05:33AM 12.7406 -76.0418 341° North  Level Estimated
05:34AM 12.7797 -76.0554 341° North  Level Estimated
05:35AM 12.8188 -76.0690 341° North  Level Estimated
05:36AM 12.8579 -76.0825 341° North  Level Estimated
05:37AM 12.8970 -76.0961 341° North  Level Estimated
05:38AM 12.9361 -76.1097 341° North  Level Estimated
05:39AM 12.9752 -76.1233 341° North  Level Estimated
05:40AM 13.0143 -76.1369 341° North  Level Estimated
05:41AM 13.0534 -76.1505 341° North  Level Estimated
05:42AM 13.0925 -76.1641 341° North  Level Estimated
05:43AM 13.1316 -76.1777 341° North  Level Estimated
05:44AM 13.1707 -76.1914 341° North  Level Estimated
05:45AM 13.2098 -76.2050 341° North  Level Estimated
05:46AM 13.2489 -76.2186 341° North  Level Estimated
05:47AM 13.2880 -76.2322 341° North  Level Estimated
05:48AM 13.3271 -76.2459 341° North  Level Estimated
05:49AM 13.3662 -76.2595 341° North  Level Estimated
05:50AM 13.4053 -76.2732 341° North  Level Estimated
05:51AM 13.4444 -76.2868 341° North  Level Estimated
05:52AM 13.4834 -76.3005 341° North  Level Estimated
05:53AM 13.5225 -76.3141 341° North  Level Estimated
05:54AM 13.5616 -76.3278 341° North  Level Estimated
05:55AM 13.6007 -76.3415 341° North  Level Estimated
05:56AM 13.6398 -76.3551 341° North  Level Estimated
05:57AM 13.6789 -76.3688 341° North  Level Estimated
05:58AM 13.7180 -76.3825 341° North  Level Estimated
05:59AM 13.7571 -76.3962 341° North  Level Estimated
06:00AM 13.7962 -76.4099 341° North  Level Estimated
06:01AM 13.8352 -76.4236 341° North  Level Estimated
06:02AM 13.8743 -76.4373 341° North  Level Estimated
06:03AM 13.9134 -76.4510 341° North  Level Estimated
06:04AM 13.9525 -76.4647 341° North  Level Estimated
06:05AM 13.9916 -76.4784 341° North  Level Estimated
06:06AM 14.0306 -76.4921 341° North  Level Estimated
06:07AM 14.0697 -76.5058 341° North  Level Estimated
06:08AM 14.1088 -76.5195 341° North  Level Estimated
06:09AM 14.1479 -76.5333 341° North  Level Estimated
06:10AM 14.1870 -76.5470 341° North  Level Estimated
06:11AM 14.2260 -76.5608 341° North  Level Estimated
06:12AM 14.2651 -76.5745 341° North  Level Estimated
06:13AM 14.3042 -76.5883 341° North  Level Estimated
06:14AM 14.3433 -76.6020 341° North  Level Estimated
06:15AM 14.3823 -76.6158 341° North  Level Estimated
06:16AM 14.4214 -76.6295 341° North  Level Estimated
06:17AM 14.4605 -76.6433 341° North  Level Estimated
06:18AM 14.4995 -76.6571 341° North  Level Estimated
06:19AM 14.5386 -76.6709 341° North  Level Estimated
06:20AM 14.5777 -76.6846 341° North  Level Estimated
06:21AM 14.6167 -76.6984 341° North  Level Estimated
06:22AM 14.6558 -76.7122 341° North  Level Estimated
06:23AM 14.6949 -76.7260 341° North  Level Estimated
06:24AM 14.7340 -76.7398 341° North  Level Estimated
06:25AM 14.7730 -76.7536 341° North  Level Estimated
06:26AM 14.8121 -76.7674 341° North  Level Estimated
06:27AM 14.8511 -76.7813 341° North  Level Estimated
06:28AM 14.8902 -76.7951 341° North  Level Estimated
06:29AM 14.9293 -76.8089 341° North  Level Estimated
06:30AM 14.9683 -76.8227 341° North  Level Estimated
06:31AM 15.0074 -76.8366 341° North  Level Estimated
06:32AM 15.0464 -76.8504 341° North  Level Estimated
06:33AM 15.0855 -76.8643 341° North  Level Estimated
06:34AM 15.1246 -76.8781 341° North  Level Estimated
06:35AM 15.1636 -76.8920 341° North  Level Estimated
06:36AM 15.2027 -76.9058 341° North  Level Estimated
06:37AM 15.2417 -76.9197 341° North  Level Estimated
06:38AM 15.2808 -76.9336 341° North  Level Estimated
06:39AM 15.3198 -76.9475 341° North  Level Estimated
06:40AM 15.3589 -76.9613 341° North  Level Estimated
06:41AM 15.3979 -76.9752 341° North  Level Estimated
06:42AM 15.4370 -76.9891 341° North  Level Estimated
06:43AM 15.4760 -77.0030 341° North  Level Estimated
06:44AM 15.5151 -77.0170 341° North  Level Estimated
06:45AM 15.5541 -77.0309 341° North  Level Estimated
06:46AM 15.5932 -77.0448 341° North  Level Estimated
06:47AM 15.6322 -77.0587 341° North  Level Estimated
06:48AM 15.6713 -77.0726 341° North  Level Estimated
06:49AM 15.7103 -77.0866 341° North  Level Estimated
06:50AM 15.7494 -77.1005 341° North  Level Estimated
06:51AM 15.7884 -77.1144 341° North  Level Estimated
06:52AM 15.8274 -77.1284 341° North  Level Estimated
06:53AM 15.8665 -77.1423 341° North  Level Estimated
06:54AM 15.9055 -77.1563 341° North  Level Estimated
06:55AM 15.9446 -77.1703 341° North  Level Estimated
06:56AM 15.9836 -77.1842 341° North  Level Estimated
06:57AM 16.0226 -77.1982 341° North  Level Estimated
06:58AM 16.0617 -77.2122 341° North  Level Estimated
06:59AM 16.1007 -77.2262 341° North  Level Estimated
07:00AM 16.1397 -77.2402 341° North  Level Estimated
07:01AM 16.1788 -77.2542 341° North  Level Estimated
07:02AM 16.2178 -77.2682 341° North  Level Estimated
07:03AM 16.2568 -77.2822 341° North  Level Estimated
07:04AM 16.2959 -77.2962 341° North  Level Estimated
07:05AM 16.3349 -77.3102 341° North  Level Estimated
07:06AM 16.3739 -77.3242 341° North  Level Estimated
07:07AM 16.4130 -77.3383 341° North  Level Estimated
07:08AM 16.4520 -77.3523 341° North  Level Estimated
07:09AM 16.4910 -77.3663 341° North  Level Estimated
07:10AM 16.5301 -77.3804 341° North  Level Estimated
07:11AM 16.5691 -77.3944 341° North  Level Estimated
07:12AM 16.6081 -77.4085 341° North  Level Estimated
07:13AM 16.6471 -77.4226 341° North  Level Estimated
07:14AM 16.6861 -77.4367 341° North  Level Estimated
07:15AM 16.7251 -77.4507 341° North  Level Estimated
07:16AM 16.7642 -77.4648 341° North  Level Estimated
07:17AM 16.8032 -77.4789 341° North  Level Estimated
07:18AM 16.8422 -77.4930 341° North  Level Estimated
07:19AM 16.8812 -77.5071 341° North  Level Estimated
07:20AM 16.9202 -77.5212 341° North  Level Estimated
07:21AM 16.9593 -77.5353 341° North  Level Estimated
07:22AM 16.9983 -77.5494 341° North  Level Estimated
07:23AM 17.0373 -77.5636 341° North  Level Estimated
07:24AM 17.0763 -77.5777 341° North  Level Estimated
07:25AM 17.1153 -77.5918 341° North  Level Estimated
07:26AM 17.1543 -77.6059 341° North  Level Estimated
07:27AM 17.1933 -77.6201 341° North  Level Estimated
07:28AM 17.2323 -77.6342 341° North  Level Estimated
07:29AM 17.2713 -77.6484 341° North  Level Estimated
07:30AM 17.3104 -77.6626 341° North  Level Estimated
07:31AM 17.3494 -77.6767 341° North  Level Estimated
07:32AM 17.3884 -77.6909 341° North  Level Estimated
07:33AM 17.4274 -77.7051 341° North  Level Estimated
07:34AM 17.4664 -77.7193 341° North  Level Estimated
07:35AM 17.5054 -77.7335 341° North  Level Estimated
07:36AM 17.5444 -77.7477 341° North  Level Estimated
07:37AM 17.5834 -77.7619 341° North  Level Estimated
07:38AM 17.6224 -77.7761 341° North  Level Estimated
07:39AM 17.6614 -77.7903 341° North  Level Estimated
07:40AM 17.7004 -77.8046 341° North  Level Estimated
07:41AM 17.7393 -77.8188 341° North  Level Estimated
07:42AM 17.7783 -77.8330 341° North  Level Estimated
07:43AM 17.8173 -77.8473 341° North  Level Estimated
07:44AM 17.8563 -77.8615 341° North  Level Estimated
07:45AM 17.8953 -77.8758 341° North  Level Estimated
07:46AM 17.9343 -77.8900 341° North  Level Estimated
07:47AM 17.9733 -77.9043 341° North  Level Estimated
07:48AM 18.0123 -77.9186 341° North  Level Estimated
07:49AM 18.0513 -77.9329 341° North  Level Estimated
07:50AM 18.0903 -77.9472 341° North  Level Estimated
07:51AM 18.1292 -77.9614 341° North  Level Estimated
07:52AM 18.1682 -77.9757 341° North  Level Estimated
07:53AM 18.2072 -77.9901 341° North  Level Estimated
07:54AM 18.2462 -78.0044 341° North  Level Estimated
07:55AM 18.2852 -78.0187 341° North  Level Estimated
07:56AM 18.3241 -78.0330 341° North  Level Estimated
07:57AM 18.3631 -78.0473 341° North  Level Estimated
07:58AM 18.4021 -78.0617 341° North  Level Estimated
07:59AM 18.4411 -78.0760 341° North  Level Estimated
08:00AM 18.4800 -78.0904 341° North  Level Estimated
08:01AM 18.5190 -78.1047 341° North  Level Estimated
08:02AM 18.5580 -78.1191 341° North  Level Estimated
08:03AM 18.5970 -78.1335 341° North  Level Estimated
08:04AM 18.6359 -78.1479 341° North  Level Estimated
08:05AM 18.6749 -78.1622 341° North  Level Estimated
08:06AM 18.7139 -78.1766 341° North  Level Estimated
08:07AM 18.7528 -78.1910 341° North  Level Estimated
08:08AM 18.7918 -78.2055 341° North  Level Estimated
08:09AM 18.8308 -78.2199 341° North  Level Estimated
08:10AM 18.8697 -78.2343 341° North  Level Estimated
08:11AM 18.9087 -78.2487 341° North  Level Estimated
08:12AM 18.9477 -78.2631 341° North  Level Estimated
08:13AM 18.9866 -78.2776 341° North  Level Estimated
08:14AM 19.0256 -78.2920 341° North  Level Estimated
08:15AM 19.0645 -78.3065 341° North  Level Estimated
08:16AM 19.1035 -78.3209 341° North  Level Estimated
08:17AM 19.1425 -78.3354 341° North  Level Estimated
08:18AM 19.1814 -78.3499 341° North  Level Estimated
08:19AM 19.2204 -78.3644 341° North  Level Estimated
08:20AM 19.2593 -78.3789 341° North  Level Estimated
08:21AM 19.2983 -78.3933 341° North  Level Estimated
08:22AM 19.3372 -78.4078 341° North  Level Estimated
08:23AM 19.3762 -78.4223 341° North  Level Estimated
08:24AM 19.4151 -78.4369 341° North  Level Estimated
08:25AM 19.4541 -78.4514 341° North  Level Estimated
08:26AM 19.4930 -78.4659 341° North  Level Estimated
08:27AM 19.5320 -78.4804 341° North  Level Estimated
08:28AM 19.5709 -78.4950 341° North  Level Estimated
08:29AM 19.6098 -78.5095 341° North  Level Estimated
08:30AM 19.6488 -78.5241 341° North  Level Estimated
08:31AM 19.6877 -78.5387 341° North  Level Estimated
08:32AM 19.7267 -78.5532 341° North  Level Estimated
08:33AM 19.7656 -78.5678 341° North  Level Estimated
08:34AM 19.8045 -78.5824 341° North  Level Estimated
08:35AM 19.8435 -78.5970 341° North  Level Estimated
08:36AM 19.8824 -78.6116 341° North  Level Estimated
08:37AM 19.9213 -78.6262 341° North  Level Estimated
08:38AM 19.9603 -78.6408 341° North  Level Estimated
08:39AM 19.9992 -78.6554 341° North  Level Estimated
08:40AM 20.0381 -78.6700 341° North  Level Estimated
08:41AM 20.0771 -78.6847 341° North  Level Estimated
08:42AM 20.1160 -78.6993 341° North  Level Estimated
08:43AM 20.1549 -78.7140 341° North  Level Estimated
08:44AM 20.1938 -78.7286 341° North  Level Estimated
08:45AM 20.2328 -78.7433 341° North  Level Estimated
08:46AM 20.2717 -78.7579 341° North  Level Estimated
08:47AM 20.3106 -78.7726 341° North  Level Estimated
08:48AM 20.3495 -78.7873 341° North  Level Estimated
08:49AM 20.3884 -78.8020 341° North  Level Estimated
08:50AM 20.4274 -78.8167 341° North  Level Estimated
08:51AM 20.4663 -78.8314 341° North  Level Estimated
08:52AM 20.5052 -78.8461 340° North  Level Estimated
08:53AM 20.5441 -78.8609 340° North  Level Estimated
08:54AM 20.5830 -78.8756 340° North  Level Estimated
08:55AM 20.6219 -78.8903 340° North  Level Estimated
08:56AM 20.6608 -78.9051 340° North  Level Estimated
08:57AM 20.6997 -78.9198 340° North  Level Estimated
08:58AM 20.7386 -78.9346 340° North  Level Estimated
08:59AM 20.7776 -78.9494 340° North  Level Estimated
09:00AM 20.8165 -78.9641 340° North  Level Estimated
09:01AM 20.8554 -78.9789 340° North  Level Estimated
09:02AM 20.8943 -78.9937 340° North  Level Estimated
09:03AM 20.9332 -79.0085 340° North  Level Estimated
09:04AM 20.9721 -79.0233 340° North  Level Estimated
09:05AM 21.0110 -79.0381 340° North  Level Estimated
09:06AM 21.0499 -79.0529 340° North  Level Estimated
09:07AM 21.0888 -79.0678 340° North  Level Estimated
09:08AM 21.1276 -79.0826 340° North  Level Estimated
09:09AM 21.1665 -79.0975 340° North  Level Estimated
09:10AM 21.2054 -79.1123 340° North  Level Estimated
09:11AM 21.2443 -79.1272 340° North  Level Estimated
09:12AM 21.2832 -79.1421 340° North  Level Estimated
09:13AM 21.3221 -79.1569 340° North  Level Estimated
09:14AM 21.3610 -79.1718 340° North  Level Estimated
09:15AM 21.3999 -79.1867 340° North  Level Estimated
09:16AM 21.4388 -79.2016 340° North  Level Estimated
09:17AM 21.4776 -79.2165 340° North  Level Estimated
09:18AM 21.5165 -79.2314 340° North  Level Estimated
09:19AM 21.5554 -79.2464 340° North  Level Estimated
09:20AM 21.5943 -79.2613 340° North  Level Estimated
09:21AM 21.6332 -79.2762 340° North  Level Estimated
09:22AM 21.6720 -79.2912 340° North  Level Estimated
09:23AM 21.7109 -79.3061 340° North  Level Estimated
09:24AM 21.7498 -79.3211 340° North  Level Estimated
09:25AM 21.7887 -79.3361 340° North  Level Estimated
09:26AM 21.8275 -79.3510 340° North  Level Estimated
09:27AM 21.8664 -79.3660 340° North  Level Estimated
09:28AM 21.9053 -79.3810 340° North  Level Estimated
09:29AM 21.9441 -79.3960 340° North  Level Estimated
09:30AM 21.9830 -79.4110 340° North  Level Estimated
09:31AM 22.0219 -79.4261 340° North  Level Estimated
09:32AM 22.0607 -79.4411 340° North  Level Estimated
09:33AM 22.0996 -79.4561 340° North  Level Estimated
09:34AM 22.1384 -79.4712 340° North  Level Estimated
09:35AM 22.1773 -79.4862 340° North  Level Estimated
09:36AM 22.2162 -79.5013 340° North  Level Estimated
09:37AM 22.2550 -79.5164 340° North  Level Estimated
09:38AM 22.2939 -79.5314 340° North  Level Estimated
09:39AM 22.3327 -79.5465 340° North  Level Estimated
09:40AM 22.3716 -79.5616 340° North  Level Estimated
09:41AM 22.4104 -79.5768 340° North  Level Estimated
09:42AM 22.4493 -79.5919 340° North  Level Estimated
09:43AM 22.4881 -79.6070 340° North  Level Estimated
09:44AM 22.5270 -79.6221 340° North  Level Estimated
09:45AM 22.5658 -79.6373 340° North  Level Estimated
09:46AM 22.6047 -79.6524 340° North  Level Estimated
09:47AM 22.6435 -79.6676 340° North  Level Estimated
09:48AM 22.6823 -79.6827 340° North  Level Estimated
09:49AM 22.7212 -79.6979 340° North  Level Estimated
09:50AM 22.7600 -79.7131 340° North  Level Estimated
09:51AM 22.7988 -79.7283 340° North  Level Estimated
09:52AM 22.8377 -79.7435 340° North  Level Estimated
09:53AM 22.8765 -79.7587 340° North  Level Estimated
09:54AM 22.9153 -79.7739 340° North  Level Estimated
09:55AM 22.9542 -79.7891 340° North  Level Estimated
09:56AM 22.9930 -79.8044 340° North  Level Estimated
09:57AM 23.0318 -79.8196 340° North  Level Estimated
09:58AM 23.0707 -79.8348 340° North  Level Estimated
09:59AM 23.1095 -79.8501 340° North  Level Estimated
10:00AM 23.1483 -79.8654 340° North  Level Estimated
10:01AM 23.1871 -79.8807 340° North  Level Estimated
10:02AM 23.2259 -79.8959 340° North  Level Estimated
10:03AM 23.2648 -79.9112 340° North  Level Estimated
10:04AM 23.3036 -79.9265 340° North  Level Estimated
10:05AM 23.3424 -79.9418 340° North  Level Estimated
10:06AM 23.3812 -79.9572 340° North  Level Estimated
10:07AM 23.4200 -79.9725 340° North  Level Estimated
10:08AM 23.4588 -79.9878 340° North  Level Estimated
10:09AM 23.4976 -80.0032 340° North  Level Estimated
10:10AM 23.5364 -80.0185 340° North  Level Estimated
10:11AM 23.5753 -80.0339 340° North  Level Estimated
10:12AM 23.6141 -80.0493 340° North  Level Estimated
10:13AM 23.6529 -80.0647 340° North  Level Estimated
10:14AM 23.6917 -80.0801 340° North  Level Estimated
10:15AM 23.7305 -80.0955 340° North  Level Estimated
10:16AM 23.7693 -80.1109 340° North  Level Estimated
10:17AM 23.8081 -80.1263 340° North  Level Estimated
10:18AM 23.8469 -80.1417 340° North  Level Estimated
10:19AM 23.8857 -80.1572 340° North  Level Estimated
10:20AM 23.9244 -80.1726 340° North  Level Estimated
10:21AM 23.9632 -80.1881 340° North  Level Estimated
10:22AM 24.0020 -80.2036 340° North  Level Estimated
10:23AM 24.0408 -80.2190 340° North  Level Estimated
10:24AM 24.0796 -80.2345 340° North  Level Estimated
10:25AM 24.1184 -80.2500 340° North  Level Estimated
10:26AM 24.1572 -80.2655 340° North  Level Estimated
10:27AM 24.1959 -80.2811 340° North  Level Estimated
10:28AM 24.2347 -80.2966 340° North  Level Estimated
10:29AM 24.2735 -80.3121 340° North  Level Estimated
10:30AM 24.3123 -80.3277 340° North  Level Estimated
10:31AM 24.3511 -80.3432 340° North  Level Estimated
10:32AM 24.3898 -80.3588 340° North  Level Estimated
10:33AM 24.4286 -80.3744 340° North  Level Estimated
10:34AM 24.4674 -80.3899 340° North  Level Estimated
10:35AM 24.5061 -80.4055 340° North  Level Estimated
10:36AM 24.5449 -80.4211 340° North  Level Estimated
10:37AM 24.5837 -80.4367 340° North  Level Estimated
10:38AM 24.6224 -80.4523 340° North  Level Estimated
10:39AM 24.6612 -80.4680 340° North  Level Estimated
10:40AM 24.7000 -80.4836 340° North  Level Estimated
10:41AM 24.7387 -80.4993 340° North  Level Estimated
10:42AM 24.7775 -80.5149 340° North  Level Estimated
10:43AM 24.8162 -80.5306 340° North  Level Estimated
10:44AM 24.8550 -80.5463 340° North  Level Estimated
10:45AM 24.8937 -80.5620 340° North  Level Estimated
10:46AM 24.9325 -80.5777 340° North  Level Estimated
10:47AM 24.9712 -80.5934 340° North  Level Estimated
10:48AM 25.0100 -80.6091 340° North  Level Estimated
10:49AM 25.0487 -80.6248 340° North  Level Estimated
10:50AM 25.0875 -80.6406 340° North  Level Estimated
10:51AM 25.1262 -80.6563 340° North  Level Estimated
10:52AM 25.1650 -80.6721 340° North  Level Estimated
10:53AM 25.2037 -80.6879 340° North  Level Estimated
10:54AM 25.2424 -80.7036 340° North  Level Estimated
10:55AM 25.2812 -80.7194 340° North  Level Estimated
10:56AM 25.3199 -80.7352 340° North  Level Estimated
10:57AM 25.3586 -80.7510 340° North  Level Estimated
10:58AM 25.3974 -80.7669 340° North  Level Estimated
10:59AM 25.4361 -80.7827 340° North  Level Estimated
11:00AM 25.4748 -80.7985 340° North  Level Estimated
11:01AM 25.5136 -80.8144 340° North  Level Estimated
11:02AM 25.5523 -80.8302 340° North  Level Estimated
11:03AM 25.5910 -80.8461 340° North  Level Estimated
11:04AM 25.6297 -80.8620 340° North  Level Estimated
11:05AM 25.6684 -80.8779 340° North  Level Estimated
11:06AM 25.7072 -80.8938 340° North  Level Estimated
11:07AM 25.7459 -80.9097 340° North  Level Estimated
11:08AM 25.7846 -80.9256 340° North  Level Estimated
11:09AM 25.8233 -80.9415 340° North  Level Estimated
11:10AM 25.8620 -80.9575 340° North  Level Estimated
11:11AM 25.9007 -80.9734 340° North  Level Estimated
11:12AM 25.9394 -80.9894 340° North  Level Estimated
11:13AM 25.9781 -81.0053 340° North  Level Estimated
11:14AM 26.0168 -81.0213 340° North  Level Estimated
11:15AM 26.0555 -81.0373 340° North  Level Estimated
11:16AM 26.0942 -81.0533 340° North  Level Estimated
11:17AM 26.1329 -81.0694 340° North  Level Estimated
11:18AM 26.1716 -81.0854 340° North  Level Estimated
11:19AM 26.2103 -81.1014 340° North  Level Estimated
11:20AM 26.2490 -81.1175 340° North  Level Estimated
11:21AM 26.2877 -81.1335 340° North  Level Estimated
11:22AM 26.3264 -81.1496 340° North  Level Estimated
11:23AM 26.3651 -81.1657 340° North  Level Estimated
11:24AM 26.4038 -81.1818 340° North  Level Estimated
11:25AM 26.4425 -81.1979 340° North  Level Estimated
11:26AM 26.4811 -81.2140 340° North  Level Estimated
11:27AM 26.5198 -81.2301 340° North  Level Estimated
11:28AM 26.5585 -81.2462 340° North  Level Estimated
11:29AM 26.5972 -81.2624 340° North  Level Estimated
11:30AM 26.6359 -81.2785 340° North  Level Estimated
11:31AM 26.6745 -81.2947 340° North  Level Estimated
11:32AM 26.7132 -81.3109 340° North  Level Estimated
11:33AM 26.7519 -81.3271 340° North  Level Estimated
11:34AM 26.7905 -81.3433 339° North  Level Estimated
11:35AM 26.8292 -81.3595 339° North  Level Estimated
11:36AM 26.8679 -81.3757 339° North  Level Estimated
11:37AM 26.9065 -81.3920 339° North  Level Estimated
11:38AM 26.9452 -81.4082 339° North  Level Estimated
11:39AM 26.9838 -81.4245 339° North  Level Estimated
11:40AM 27.0225 -81.4407 339° North  Level Estimated
11:41AM 27.0611 -81.4570 339° North  Level Estimated
11:42AM 27.0998 -81.4733 339° North  Level Estimated
11:43AM 27.1385 -81.4896 339° North  Level Estimated
11:44AM 27.1771 -81.5059 339° North  Level Estimated
11:45AM 27.2157 -81.5222 339° North  Level Estimated
11:46AM 27.2544 -81.5386 339° North  Level Estimated
11:47AM 27.2930 -81.5549 339° North  Level Estimated
11:48AM 27.3317 -81.5713 339° North  Level Estimated
11:49AM 27.3703 -81.5876 339° North  Level Estimated
11:50AM 27.4090 -81.6040 339° North  Level Estimated
11:51AM 27.4476 -81.6204 339° North  Level Estimated
11:52AM 27.4862 -81.6368 339° North  Level Estimated
11:53AM 27.5249 -81.6532 339° North  Level Estimated
11:54AM 27.5635 -81.6696 339° North  Level Estimated
11:55AM 27.6021 -81.6861 339° North  Level Estimated
11:56AM 27.6408 -81.7025 339° North  Level Estimated
11:57AM 27.6794 -81.7190 339° North  Level Estimated
11:58AM 27.7180 -81.7355 339° North  Level Estimated
11:59AM 27.7566 -81.7519 339° North  Level Estimated
12:00PM 27.7952 -81.7684 339° North  Level Estimated
12:01PM 27.8339 -81.7850 339° North  Level Estimated
12:02PM 27.8725 -81.8015 339° North  Level Estimated
12:03PM 27.9111 -81.8180 339° North  Level Estimated
12:04PM 27.9497 -81.8345 339° North  Level Estimated
12:05PM 27.9883 -81.8511 339° North  Level Estimated
12:06PM 28.0269 -81.8677 339° North  Level Estimated
12:07PM 28.0655 -81.8842 339° North  Level Estimated
12:08PM 28.1041 -81.9008 339° North  Level Estimated
12:09PM 28.1427 -81.9174 339° North  Level Estimated
12:10PM 28.1813 -81.9340 339° North  Level Estimated
12:11PM 28.2199 -81.9507 339° North  Level Estimated
12:12PM 28.2585 -81.9673 339° North  Level Estimated
12:13PM 28.2971 -81.9840 339° North  Level Estimated
12:14PM 28.3357 -82.0006 339° North  Level Estimated
12:15PM 28.3743 -82.0173 339° North  Level Estimated
12:16PM 28.4128 -82.0340 339° North  Level Estimated
12:17PM 28.4514 -82.0507 339° North  Level Estimated
12:18PM 28.4900 -82.0674 339° North  Level Estimated
12:19PM 28.5286 -82.0841 339° North  Level Estimated
12:20PM 28.5672 -82.1009 339° North  Level Estimated
12:21PM 28.6057 -82.1176 339° North  Level Estimated
12:22PM 28.6443 -82.1344 339° North  Level Estimated
12:23PM 28.6829 -82.1511 339° North  Level Estimated
12:24PM 28.7215 -82.1679 339° North  Level Estimated
12:25PM 28.7600 -82.1847 339° North  Level Estimated
12:26PM 28.7986 -82.2015 339° North  Level Estimated
12:27PM 28.8372 -82.2183 339° North  Level Estimated
12:28PM 28.8757 -82.2352 339° North  Level Estimated
12:29PM 28.9143 -82.2520 339° North  Level Estimated
12:30PM 28.9528 -82.2689 339° North  Level Estimated
12:31PM 28.9914 -82.2858 339° North  Level Estimated
12:32PM 29.0299 -82.3026 339° North  Level Estimated
12:33PM 29.0685 -82.3195 339° North  Level Estimated
12:34PM 29.1070 -82.3364 339° North  Level Estimated
12:35PM 29.1456 -82.3534 339° North  Level Estimated
12:36PM 29.1841 -82.3703 339° North  Level Estimated
12:37PM 29.2227 -82.3873 339° North  Level Estimated
12:38PM 29.2612 -82.4042 339° North  Level Estimated
12:39PM 29.2998 -82.4212 339° North  Level Estimated
12:40PM 29.3383 -82.4382 339° North  Level Estimated
12:41PM 29.3768 -82.4552 339° North  Level Estimated
12:42PM 29.4154 -82.4722 339° North  Level Estimated
12:43PM 29.4539 -82.4892 339° North  Level Estimated
12:44PM 29.4924 -82.5062 339° North  Level Estimated
12:45PM 29.5310 -82.5233 339° North  Level Estimated
12:46PM 29.5695 -82.5404 339° North  Level Estimated
12:47PM 29.6080 -82.5574 339° North  Level Estimated
12:48PM 29.6465 -82.5745 339° North  Level Estimated
12:49PM 29.6850 -82.5916 339° North  Level Estimated
12:50PM 29.7235 -82.6087 339° North  Level Estimated
12:51PM 29.7621 -82.6259 339° North  Level Estimated
12:52PM 29.8006 -82.6430 339° North  Level Estimated
12:53PM 29.8391 -82.6602 339° North  Level Estimated
12:54PM 29.8776 -82.6773 339° North  Level Estimated
12:55PM 29.9161 -82.6945 339° North  Level Estimated
12:56PM 29.9546 -82.7117 339° North  Level Estimated
12:57PM 29.9931 -82.7289 339° North  Level Estimated
12:58PM 30.0316 -82.7461 339° North  Level Estimated
12:59PM 30.0701 -82.7634 339° North  Level Estimated
01:00PM 30.1086 -82.7806 339° North  Level Estimated
01:01PM 30.1471 -82.7979 339° North  Level Estimated
01:02PM 30.1855 -82.8152 339° North  Level Estimated
01:03PM 30.2240 -82.8325 339° North  Level Estimated
01:04PM 30.2625 -82.8498 339° North  Level Estimated
01:05PM 30.3010 -82.8671 339° North  Level Estimated
01:06PM 30.3395 -82.8844 339° North  Level Estimated
01:07PM 30.3780 -82.9018 339° North  Level Estimated
01:08PM 30.4164 -82.9191 339° North  Level Estimated
01:09PM 30.4549 -82.9365 339° North  Level Estimated
01:10PM 30.4934 -82.9539 339° North  Level Estimated
01:11PM 30.5318 -82.9713 339° North  Level Estimated
01:12PM 30.5703 -82.9887 339° North  Level Estimated
01:13PM 30.6087 -83.0061 339° North  Level Estimated
01:14PM 30.6472 -83.0236 339° North  Level Estimated
01:15PM 30.6857 -83.0410 339° North  Level Estimated
01:16PM 30.7241 -83.0585 339° North  Level Estimated
01:17PM 30.7626 -83.0760 339° North  Level Estimated
01:18PM 30.8010 -83.0935 339° North  Level Estimated
01:19PM 30.8395 -83.1110 339° North  Level Estimated
01:20PM 30.8779 -83.1285 339° North  Level Estimated
01:21PM 30.9164 -83.1460 339° North  Level Estimated
01:22PM 30.9548 -83.1636 339° North  Level Estimated
01:23PM 30.9932 -83.1811 339° North  Level Estimated
01:24PM 31.0317 -83.1987 339° North  Level Estimated
01:25PM 31.0701 -83.2163 339° North  Level Estimated
01:26PM 31.1085 -83.2339 339° North  Level Estimated
01:27PM 31.1470 -83.2515 339° North  Level Estimated
01:28PM 31.1854 -83.2692 339° North  Level Estimated
01:29PM 31.2238 -83.2868 339° North  Level Estimated
01:30PM 31.2623 -83.3045 339° North  Level Estimated
01:31PM 31.3007 -83.3222 339° North  Level Estimated
01:32PM 31.3391 -83.3399 339° North  Level Estimated
01:33PM 31.3775 -83.3576 339° North  Level Estimated
01:34PM 31.4159 -83.3753 339° North  Level Estimated
01:35PM 31.4543 -83.3930 338° Northwest  Level Estimated
01:36PM 31.4927 -83.4108 338° Northwest  Level Estimated
01:37PM 31.5311 -83.4286 338° Northwest  Level Estimated
01:38PM 31.5695 -83.4463 338° Northwest  Level Estimated
01:39PM 31.6079 -83.4641 338° Northwest  Level Estimated
01:40PM 31.6463 -83.4819 338° Northwest  Level Estimated
01:41PM 31.6847 -83.4998 338° Northwest  Level Estimated
01:42PM 31.7231 -83.5176 338° Northwest  Level Estimated
01:43PM 31.7615 -83.5355 338° Northwest  Level Estimated
01:44PM 31.7999 -83.5534 338° Northwest  Level Estimated
01:45PM 31.8383 -83.5712 338° Northwest  Level Estimated
01:46PM 31.8767 -83.5891 338° Northwest  Level Estimated
01:47PM 31.9151 -83.6070 338° Northwest  Level Estimated
01:48PM 31.9534 -83.6250 338° Northwest  Level Estimated
01:49PM 31.9918 -83.6429 338° Northwest  Level Estimated
01:50PM 32.0302 -83.6609 338° Northwest  Level Estimated
01:51PM 32.0686 -83.6788 338° Northwest  Level Estimated
01:52PM 32.1069 -83.6968 338° Northwest  Level Estimated
01:53PM 32.1453 -83.7149 338° Northwest  Level Estimated
01:54PM 32.1837 -83.7329 338° Northwest  Level Estimated
01:55PM 32.2220 -83.7509 338° Northwest  Level Estimated
01:56PM 32.2604 -83.7690 338° Northwest  Level Estimated
01:57PM 32.2987 -83.7870 338° Northwest  Level Estimated
01:58PM 32.3371 -83.8051 338° Northwest  Level Estimated
01:59PM 32.3754 -83.8232 338° Northwest  Level Estimated
02:00PM 32.4138 -83.8413 338° Northwest  Level Estimated
02:01PM 32.4521 -83.8595 338° Northwest  Level Estimated
02:02PM 32.4905 -83.8776 338° Northwest  Level Estimated
02:03PM 32.5288 -83.8958 338° Northwest  Level Estimated
02:04PM 32.5671 -83.9139 338° Northwest  Level Estimated
02:05PM 32.6055 -83.9321 338° Northwest  Level Estimated
02:06PM 32.6438 -83.9503 338° Northwest  Level Estimated
02:07PM 32.6821 -83.9685 338° Northwest  Level Estimated
02:08PM 32.7205 -83.9868 338° Northwest  Level Estimated
02:09PM 32.7588 -84.0050 338° Northwest  Level Estimated
02:10PM 32.7971 -84.0233 338° Northwest  Level Estimated
02:11PM 32.8354 -84.0416 338° Northwest  Level Estimated
02:12PM 32.8737 -84.0599 338° Northwest  Level Estimated
02:13PM 32.9120 -84.0782 338° Northwest  Level Estimated
02:14PM 32.9504 -84.0965 338° Northwest  Level Estimated
02:15PM 32.9887 -84.1149 338° Northwest  Level Estimated
02:16PM 33.0270 -84.1332 338° Northwest  Level Estimated
02:17PM 33.0653 -84.1516 338° Northwest  Level Estimated
02:18PM 33.1036 -84.1700 338° Northwest  Level Estimated
02:19PM 33.1419 -84.1884 338° Northwest  Level Estimated
02:20PM 33.1802 -84.2068 338° Northwest  Level Estimated
02:21PM 33.2184 -84.2253 338° Northwest  Level Estimated
02:22PM 33.2567 -84.2437 338° Northwest  Level Estimated
02:23PM 33.2950 -84.2622 338° Northwest  Level Estimated
02:24PM 33.3333 -84.2807 338° Northwest  Level Estimated
02:25PM 33.3716 -84.2992 338° Northwest  Level Estimated
02:26PM 33.4099 -84.3177 338° Northwest  Level Estimated
02:27PM 33.4481 -84.3363 338° Northwest  Level Estimated
02:28PM 33.4864 -84.3548 338° Northwest  Level Estimated
02:29PM 33.5247 -84.3734 338° Northwest  Level Estimated
02:30PM 33.5630 -84.3920 338° Northwest  Level Estimated
02:31PM 33.6012 -84.4106 338° Northwest  Level Estimated
02:32PM 33.6367 -84.4279 338° Northwest  Level Estimated
02:33PM 33.6367 -84.4279 261° West  Level Estimated
02:34PM 33.6367 -84.4279 261° West  Level Estimated
02:35PM 33.6367 -84.4279 261° West  Level Estimated
02:36PM 33.6367 -84.4279 261° West  Level Estimated
02:37PM 33.6367 -84.4279 261° West  Level Estimated
02:38PM 33.6367 -84.4279 261° West  Level Estimated
02:39PM 33.6367 -84.4279 261° West  Level Estimated
02:40PM 33.6367 -84.4279 261° West  Level Estimated
02:41PM 33.6367 -84.4279 261° West  Level Estimated
02:42PM 33.6367 -84.4279 261° West  Level Estimated
02:43PM 33.6367 -84.4279 261° West  Level Estimated
02:44PM 33.6367 -84.4279 261° West  Level Estimated
02:45PM 33.6367 -84.4279 261° West  Level Estimated
02:46PM 33.6367 -84.4279 261° West  Level Estimated
02:47PM 33.6367 -84.4279 261° West  Level Estimated
02:48PM 33.6367 -84.4279 261° West  Level Estimated